createdAt,value
2018-03-08T00:00:05.633Z,975.96
2018-03-08T00:01:05.909Z,975.92
2018-03-08T00:02:06.158Z,975.95
2018-03-08T00:03:06.392Z,975.95
2018-03-08T00:04:06.641Z,975.95
2018-03-08T00:05:06.887Z,975.96
2018-03-08T00:06:07.132Z,975.97
2018-03-08T00:07:07.384Z,975.97
2018-03-08T00:08:07.642Z,975.98
2018-03-08T00:09:07.885Z,975.96
2018-03-08T00:10:08.137Z,976.01
2018-03-08T00:11:08.382Z,976.05
2018-03-08T00:12:08.632Z,976.06
2018-03-08T00:13:08.880Z,976.08
2018-03-08T00:14:09.130Z,976.10
2018-03-08T00:15:09.381Z,976.09
2018-03-08T00:16:09.631Z,976.07
2018-03-08T00:17:09.885Z,976.06
2018-03-08T00:18:10.135Z,976.09
2018-03-08T00:19:10.371Z,976.08
2018-03-08T00:20:10.622Z,976.10
2018-03-08T00:21:10.872Z,976.06
2018-03-08T00:22:11.146Z,976.07
2018-03-08T00:23:11.395Z,976.10
2018-03-08T00:24:11.645Z,976.12
2018-03-08T00:25:11.894Z,976.16
2018-03-08T00:26:12.141Z,976.14
2018-03-08T00:27:12.387Z,976.22
2018-03-08T00:28:12.639Z,976.19
2018-03-08T00:29:12.895Z,976.23
2018-03-08T00:30:13.146Z,976.25
2018-03-08T00:31:13.392Z,976.21
2018-03-08T00:32:13.636Z,976.23
2018-03-08T00:33:13.887Z,976.21
2018-03-08T00:34:14.140Z,976.19
2018-03-08T00:35:14.396Z,976.25
2018-03-08T00:36:14.643Z,976.28
2018-03-08T00:37:14.884Z,976.29
2018-03-08T00:38:15.133Z,976.31
2018-03-08T00:39:15.367Z,976.34
2018-03-08T00:40:15.618Z,976.37
2018-03-08T00:41:15.870Z,976.35
2018-03-08T00:42:16.114Z,976.35
2018-03-08T00:43:16.363Z,976.32
2018-03-08T00:44:16.616Z,976.36
2018-03-08T00:45:16.863Z,976.39
2018-03-08T00:46:17.112Z,976.37
2018-03-08T00:47:17.357Z,976.35
2018-03-08T00:48:17.613Z,976.39
2018-03-08T00:49:17.867Z,976.32
2018-03-08T00:50:18.104Z,976.38
2018-03-08T00:51:18.354Z,976.42
2018-03-08T00:52:18.610Z,976.46
2018-03-08T00:53:18.852Z,976.44
2018-03-08T00:54:19.101Z,976.44
2018-03-08T00:55:19.360Z,976.45
2018-03-08T00:56:19.598Z,976.46
2018-03-08T00:57:19.844Z,976.53
2018-03-08T00:58:20.095Z,976.52
2018-03-08T00:59:20.346Z,976.47
2018-03-08T01:00:20.589Z,976.52
2018-03-08T01:01:20.831Z,976.53
2018-03-08T01:02:21.082Z,976.52
2018-03-08T01:03:21.333Z,976.53
2018-03-08T01:04:21.585Z,976.53
2018-03-08T01:05:21.834Z,976.58
2018-03-08T01:06:22.105Z,976.54
2018-03-08T01:07:22.353Z,976.52
2018-03-08T01:08:22.602Z,976.58
2018-03-08T01:09:22.852Z,976.58
2018-03-08T01:10:23.108Z,976.54
2018-03-08T01:11:23.365Z,976.60
2018-03-08T01:12:23.601Z,976.58
2018-03-08T01:13:23.847Z,976.61
2018-03-08T01:14:24.098Z,976.61
2018-03-08T01:15:24.345Z,976.68
2018-03-08T01:16:24.592Z,976.69
2018-03-08T01:17:24.843Z,976.73
2018-03-08T01:18:25.094Z,976.69
2018-03-08T01:19:25.339Z,976.68
2018-03-08T01:20:25.593Z,976.67
2018-03-08T01:21:25.844Z,976.67
2018-03-08T01:22:26.093Z,976.74
2018-03-08T01:23:26.344Z,976.70
2018-03-08T01:24:26.591Z,976.71
2018-03-08T01:25:26.846Z,976.73
2018-03-08T01:26:27.095Z,976.68
2018-03-08T01:27:27.347Z,976.76
2018-03-08T01:28:27.594Z,976.68
2018-03-08T01:29:27.847Z,976.73
2018-03-08T01:30:28.091Z,976.74
2018-03-08T01:31:28.343Z,976.63
2018-03-08T01:32:28.593Z,976.79
2018-03-08T01:33:28.842Z,976.69
2018-03-08T01:34:29.090Z,976.71
2018-03-08T01:35:29.342Z,976.75
2018-03-08T01:36:29.591Z,976.77
2018-03-08T01:37:29.835Z,976.75
2018-03-08T01:38:30.091Z,976.78
2018-03-08T01:39:30.338Z,976.73
2018-03-08T01:40:30.586Z,976.77
2018-03-08T01:41:30.837Z,976.77
2018-03-08T01:42:31.087Z,976.80
2018-03-08T01:43:31.376Z,976.78
2018-03-08T01:44:31.587Z,976.84
2018-03-08T01:45:31.833Z,976.83
2018-03-08T01:46:32.088Z,976.87
2018-03-08T01:47:32.340Z,976.87
2018-03-08T01:48:32.593Z,976.85
2018-03-08T01:49:32.861Z,976.83
2018-03-08T01:50:33.140Z,976.81
2018-03-08T01:51:33.359Z,976.83
2018-03-08T01:52:33.613Z,976.84
2018-03-08T01:53:33.858Z,976.89
2018-03-08T01:54:34.110Z,976.90
2018-03-08T01:55:34.363Z,976.90
2018-03-08T01:56:34.629Z,976.88
2018-03-08T01:57:34.869Z,976.87
2018-03-08T01:58:35.117Z,976.89
2018-03-08T01:59:35.363Z,976.89
2018-03-08T02:00:35.614Z,976.91
2018-03-08T02:01:35.865Z,976.92
2018-03-08T02:02:36.110Z,976.90
2018-03-08T02:03:36.376Z,976.95
2018-03-08T02:04:36.623Z,976.95
2018-03-08T02:05:36.876Z,976.96
2018-03-08T02:06:37.123Z,976.99
2018-03-08T02:07:37.375Z,977.04
2018-03-08T02:08:37.624Z,976.98
2018-03-08T02:09:37.881Z,977.06
2018-03-08T02:10:38.128Z,977.01
2018-03-08T02:11:38.372Z,977.04
2018-03-08T02:12:38.622Z,977.09
2018-03-08T02:13:38.877Z,977.09
2018-03-08T02:14:39.130Z,977.12
2018-03-08T02:15:39.379Z,977.12
2018-03-08T02:16:39.627Z,977.11
2018-03-08T02:17:39.901Z,977.12
2018-03-08T02:18:40.152Z,977.18
2018-03-08T02:19:40.409Z,977.11
2018-03-08T02:20:40.660Z,977.12
2018-03-08T02:21:40.914Z,977.16
2018-03-08T02:22:41.157Z,977.15
2018-03-08T02:23:41.407Z,977.18
2018-03-08T02:24:41.658Z,977.19
2018-03-08T02:25:41.909Z,977.17
2018-03-08T02:26:42.159Z,977.20
2018-03-08T02:27:42.405Z,977.21
2018-03-08T02:28:42.656Z,977.26
2018-03-08T02:29:42.909Z,977.22
2018-03-08T02:30:43.153Z,977.21
2018-03-08T02:31:43.410Z,977.24
2018-03-08T02:32:43.657Z,977.20
2018-03-08T02:33:43.908Z,977.24
2018-03-08T02:34:44.159Z,977.26
2018-03-08T02:35:44.416Z,977.25
2018-03-08T02:36:44.656Z,977.19
2018-03-08T02:37:44.907Z,977.26
2018-03-08T02:38:45.161Z,977.25
2018-03-08T02:39:45.409Z,977.25
2018-03-08T02:40:45.659Z,977.32
2018-03-08T02:41:45.912Z,977.29
2018-03-08T02:42:46.169Z,977.30
2018-03-08T02:43:46.428Z,977.40
2018-03-08T02:44:46.672Z,977.39
2018-03-08T02:45:46.943Z,977.38
2018-03-08T02:46:47.198Z,977.44
2018-03-08T02:47:47.444Z,977.38
2018-03-08T02:48:47.689Z,977.38
2018-03-08T02:49:47.941Z,977.42
2018-03-08T02:50:48.199Z,977.42
2018-03-08T02:51:48.444Z,977.41
2018-03-08T02:52:48.696Z,977.39
2018-03-08T02:53:48.942Z,977.45
2018-03-08T02:54:49.194Z,977.41
2018-03-08T02:55:49.443Z,977.45
2018-03-08T02:56:49.695Z,977.48
2018-03-08T02:57:49.944Z,977.47
2018-03-08T02:58:50.195Z,977.44
2018-03-08T02:59:50.454Z,977.49
2018-03-08T03:00:50.711Z,977.48
2018-03-08T03:01:50.959Z,977.54
2018-03-08T03:02:51.210Z,977.50
2018-03-08T03:03:51.458Z,977.48
2018-03-08T03:04:51.707Z,977.51
2018-03-08T03:05:51.956Z,977.50
2018-03-08T03:06:52.208Z,977.49
2018-03-08T03:07:52.461Z,977.55
2018-03-08T03:08:52.711Z,977.56
2018-03-08T03:09:53.030Z,977.52
2018-03-08T03:10:53.213Z,977.56
2018-03-08T03:11:53.457Z,977.54
2018-03-08T03:12:53.703Z,977.54
2018-03-08T03:13:53.952Z,977.55
2018-03-08T03:14:54.202Z,977.55
2018-03-08T03:15:54.454Z,977.52
2018-03-08T03:16:54.701Z,977.47
2018-03-08T03:17:54.952Z,977.43
2018-03-08T03:18:55.205Z,977.43
2018-03-08T03:19:55.455Z,977.48
2018-03-08T03:20:55.706Z,977.46
2018-03-08T03:21:55.956Z,977.47
2018-03-08T03:22:56.207Z,977.47
2018-03-08T03:23:56.455Z,977.44
2018-03-08T03:24:56.711Z,977.49
2018-03-08T03:25:56.964Z,977.49
2018-03-08T03:26:57.208Z,977.47
2018-03-08T03:27:57.461Z,977.50
2018-03-08T03:28:57.710Z,977.53
2018-03-08T03:29:57.957Z,977.51
2018-03-08T03:30:58.208Z,977.48
2018-03-08T03:31:58.454Z,977.47
2018-03-08T03:32:58.703Z,977.54
2018-03-08T03:33:58.949Z,977.51
2018-03-08T03:34:59.196Z,977.51
2018-03-08T03:35:59.449Z,977.57
2018-03-08T03:36:59.702Z,977.52
2018-03-08T03:37:59.954Z,977.52
2018-03-08T03:39:00.203Z,977.60
2018-03-08T03:40:00.457Z,977.56
2018-03-08T03:41:00.707Z,977.54
2018-03-08T03:42:00.954Z,977.58
2018-03-08T03:43:01.218Z,977.55
2018-03-08T03:44:01.470Z,977.60
2018-03-08T03:45:01.717Z,977.57
2018-03-08T03:46:01.973Z,977.63
2018-03-08T03:47:02.220Z,977.67
2018-03-08T03:48:02.470Z,977.69
2018-03-08T03:49:02.720Z,977.71
2018-03-08T03:50:02.972Z,977.79
2018-03-08T03:51:03.220Z,977.73
2018-03-08T03:52:03.470Z,977.76
2018-03-08T03:53:03.716Z,977.81
2018-03-08T03:54:03.967Z,977.77
2018-03-08T03:55:04.222Z,977.81
2018-03-08T03:56:04.471Z,977.78
2018-03-08T03:57:04.743Z,977.83
2018-03-08T03:58:04.994Z,977.83
2018-03-08T03:59:05.262Z,977.83
2018-03-08T04:00:05.495Z,977.85
2018-03-08T04:01:05.741Z,977.84
2018-03-08T04:02:05.984Z,977.88
2018-03-08T04:03:06.234Z,977.98
2018-03-08T04:04:06.481Z,977.96
2018-03-08T04:05:06.739Z,977.94
2018-03-08T04:06:06.984Z,978.01
2018-03-08T04:07:07.235Z,977.97
2018-03-08T04:08:07.487Z,977.98
2018-03-08T04:09:07.741Z,978.00
2018-03-08T04:10:07.989Z,977.95
2018-03-08T04:11:08.236Z,978.02
2018-03-08T04:12:08.525Z,978.00
2018-03-08T04:13:08.735Z,978.07
2018-03-08T04:14:08.985Z,978.11
2018-03-08T04:15:09.242Z,978.12
2018-03-08T04:16:09.489Z,978.10
2018-03-08T04:17:09.739Z,978.13
2018-03-08T04:18:09.991Z,978.17
2018-03-08T04:19:10.242Z,978.16
2018-03-08T04:20:10.497Z,978.21
2018-03-08T04:21:10.740Z,978.25
2018-03-08T04:22:10.993Z,978.18
2018-03-08T04:23:11.239Z,978.19
2018-03-08T04:24:11.491Z,978.20
2018-03-08T04:25:11.742Z,978.24
2018-03-08T04:26:11.994Z,978.26
2018-03-08T04:27:12.242Z,978.29
2018-03-08T04:28:12.490Z,978.31
2018-03-08T04:29:12.741Z,978.33
2018-03-08T04:30:12.990Z,978.38
2018-03-08T04:31:13.240Z,978.34
2018-03-08T04:32:13.490Z,978.35
2018-03-08T04:33:13.742Z,978.37
2018-03-08T04:34:13.989Z,978.40
2018-03-08T04:35:14.239Z,978.36
2018-03-08T04:36:14.489Z,978.47
2018-03-08T04:37:14.739Z,978.36
2018-03-08T04:38:14.989Z,978.41
2018-03-08T04:39:15.236Z,978.42
2018-03-08T04:40:15.502Z,978.44
2018-03-08T04:41:15.754Z,978.47
2018-03-08T04:42:16.005Z,978.41
2018-03-08T04:43:16.252Z,978.37
2018-03-08T04:44:16.504Z,978.43
2018-03-08T04:45:16.751Z,978.50
2018-03-08T04:46:16.997Z,978.52
2018-03-08T04:47:17.251Z,978.49
2018-03-08T04:48:17.502Z,978.47
2018-03-08T04:49:17.752Z,978.52
2018-03-08T04:50:18.001Z,978.52
2018-03-08T04:51:18.249Z,978.53
2018-03-08T04:52:18.498Z,978.53
2018-03-08T04:53:18.753Z,978.48
2018-03-08T04:54:19.045Z,978.55
2018-03-08T04:55:19.252Z,978.54
2018-03-08T04:56:19.500Z,978.52
2018-03-08T04:57:19.756Z,978.54
2018-03-08T04:58:20.017Z,978.56
2018-03-08T04:59:20.258Z,978.58
2018-03-08T05:00:20.507Z,978.56
2018-03-08T05:01:20.759Z,978.61
2018-03-08T05:02:21.009Z,978.60
2018-03-08T05:03:21.262Z,978.58
2018-03-08T05:04:21.512Z,978.58
2018-03-08T05:05:21.764Z,978.57
2018-03-08T05:06:22.018Z,978.61
2018-03-08T05:07:22.274Z,978.64
2018-03-08T05:08:22.547Z,978.64
2018-03-08T05:09:22.791Z,978.62
2018-03-08T05:10:23.044Z,978.69
2018-03-08T05:11:23.292Z,978.66
2018-03-08T05:12:23.544Z,978.66
2018-03-08T05:13:23.796Z,978.62
2018-03-08T05:14:24.048Z,978.70
2018-03-08T05:15:24.300Z,978.70
2018-03-08T05:16:24.555Z,978.75
2018-03-08T05:17:24.807Z,978.71
2018-03-08T05:18:25.061Z,978.76
2018-03-08T05:19:25.396Z,978.81
2018-03-08T05:20:25.568Z,978.81
2018-03-08T05:21:25.819Z,978.80
2018-03-08T05:22:26.069Z,978.83
2018-03-08T05:23:26.321Z,978.83
2018-03-08T05:24:26.569Z,978.83
2018-03-08T05:25:26.819Z,978.82
2018-03-08T05:26:27.067Z,978.83
2018-03-08T05:27:27.320Z,978.85
2018-03-08T05:28:27.569Z,978.84
2018-03-08T05:29:27.820Z,978.87
2018-03-08T05:30:28.069Z,978.88
2018-03-08T05:31:28.321Z,978.89
2018-03-08T05:32:28.562Z,978.87
2018-03-08T05:33:28.810Z,978.93
2018-03-08T05:34:29.059Z,978.92
2018-03-08T05:35:29.310Z,978.93
2018-03-08T05:36:29.580Z,979.00
2018-03-08T05:37:29.833Z,979.02
2018-03-08T05:38:30.085Z,979.04
2018-03-08T05:39:30.338Z,979.02
2018-03-08T05:40:30.590Z,979.00
2018-03-08T05:41:30.842Z,979.09
2018-03-08T05:42:31.094Z,979.08
2018-03-08T05:43:31.342Z,979.02
2018-03-08T05:44:31.600Z,978.99
2018-03-08T05:45:31.848Z,979.04
2018-03-08T05:46:32.102Z,979.03
2018-03-08T05:47:32.360Z,979.11
2018-03-08T05:48:32.602Z,979.14
2018-03-08T05:49:32.859Z,979.12
2018-03-08T05:50:33.112Z,979.13
2018-03-08T05:51:33.360Z,979.16
2018-03-08T05:52:33.617Z,979.15
2018-03-08T05:53:33.870Z,979.22
2018-03-08T05:54:34.121Z,979.25
2018-03-08T05:55:34.372Z,979.25
2018-03-08T05:56:34.621Z,979.25
2018-03-08T05:57:34.875Z,979.30
2018-03-08T05:58:35.119Z,979.33
2018-03-08T05:59:35.367Z,979.31
2018-03-08T06:00:35.622Z,979.29
2018-03-08T06:01:35.873Z,979.33
2018-03-08T06:02:36.121Z,979.32
2018-03-08T06:03:36.370Z,979.31
2018-03-08T06:04:36.618Z,979.39
2018-03-08T06:05:36.868Z,979.40
2018-03-08T06:06:37.119Z,979.40
2018-03-08T06:07:37.369Z,979.40
2018-03-08T06:08:37.624Z,979.45
2018-03-08T06:09:37.876Z,979.50
2018-03-08T06:10:38.129Z,979.52
2018-03-08T06:11:38.382Z,979.56
2018-03-08T06:12:38.635Z,979.54
2018-03-08T06:13:38.885Z,979.58
2018-03-08T06:14:39.136Z,979.59
2018-03-08T06:15:39.392Z,979.62
2018-03-08T06:16:39.641Z,979.60
2018-03-08T06:17:39.895Z,979.70
2018-03-08T06:18:40.148Z,979.70
2018-03-08T06:19:40.398Z,979.71
2018-03-08T06:20:40.672Z,979.71
2018-03-08T06:21:40.905Z,979.73
2018-03-08T06:22:41.158Z,979.78
2018-03-08T06:23:41.416Z,979.80
2018-03-08T06:24:41.667Z,979.79
2018-03-08T06:25:41.913Z,979.78
2018-03-08T06:26:42.166Z,979.84
2018-03-08T06:27:42.414Z,979.84
2018-03-08T06:28:42.673Z,979.86
2018-03-08T06:29:42.917Z,979.88
2018-03-08T06:30:43.175Z,979.94
2018-03-08T06:31:43.432Z,979.93
2018-03-08T06:32:43.682Z,979.94
2018-03-08T06:33:43.933Z,980.00
2018-03-08T06:34:44.183Z,979.98
2018-03-08T06:35:44.437Z,979.94
2018-03-08T06:36:44.692Z,980.00
2018-03-08T06:37:44.949Z,980.03
2018-03-08T06:38:45.200Z,980.03
2018-03-08T06:39:45.456Z,979.99
2018-03-08T06:40:45.712Z,980.00
2018-03-08T06:41:45.964Z,980.00
2018-03-08T06:42:46.217Z,980.06
2018-03-08T06:43:46.474Z,980.08
2018-03-08T06:44:46.769Z,980.08
2018-03-08T06:45:46.980Z,980.05
2018-03-08T06:46:47.235Z,980.10
2018-03-08T06:47:47.483Z,980.11
2018-03-08T06:48:47.736Z,980.14
2018-03-08T06:49:47.987Z,980.14
2018-03-08T06:50:48.237Z,980.12
2018-03-08T06:51:48.487Z,980.11
2018-03-08T06:52:48.741Z,980.17
2018-03-08T06:53:48.995Z,980.21
2018-03-08T06:54:49.245Z,980.20
2018-03-08T06:55:49.500Z,980.23
2018-03-08T06:56:49.751Z,980.26
2018-03-08T06:57:50.693Z,980.29
2018-03-08T06:58:50.254Z,980.21
2018-03-08T06:59:50.506Z,980.23
2018-03-08T07:00:50.760Z,980.26
2018-03-08T07:01:51.013Z,980.25
2018-03-08T07:02:51.275Z,980.24
2018-03-08T07:03:51.518Z,980.24
2018-03-08T07:04:51.772Z,980.28
2018-03-08T07:05:52.027Z,980.29
2018-03-08T07:06:52.273Z,980.30
2018-03-08T07:07:52.526Z,980.32
2018-03-08T07:08:52.780Z,980.30
2018-03-08T07:09:53.056Z,980.30
2018-03-08T07:10:53.284Z,980.34
2018-03-08T07:11:53.537Z,980.38
2018-03-08T07:12:53.786Z,980.38
2018-03-08T07:13:54.038Z,980.44
2018-03-08T07:14:54.287Z,980.44
2018-03-08T07:15:54.547Z,980.44
2018-03-08T07:16:54.795Z,980.42
2018-03-08T07:17:55.058Z,980.40
2018-03-08T07:18:55.312Z,980.38
2018-03-08T07:19:55.561Z,980.46
2018-03-08T07:20:55.816Z,980.45
2018-03-08T07:21:56.066Z,980.47
2018-03-08T07:22:56.314Z,980.49
2018-03-08T07:23:56.569Z,980.48
2018-03-08T07:24:56.823Z,980.57
2018-03-08T07:25:57.072Z,980.55
2018-03-08T07:26:57.326Z,980.65
2018-03-08T07:27:57.576Z,980.63
2018-03-08T07:28:57.826Z,980.61
2018-03-08T07:29:58.078Z,980.63
2018-03-08T07:30:58.331Z,980.66
2018-03-08T07:31:58.583Z,980.65
2018-03-08T07:32:58.840Z,980.65
2018-03-08T07:33:59.088Z,980.64
2018-03-08T07:34:59.335Z,980.60
2018-03-08T07:35:59.593Z,980.63
2018-03-08T07:36:59.844Z,980.64
2018-03-08T07:38:00.101Z,980.64
2018-03-08T07:39:00.348Z,980.61
2018-03-08T07:40:00.601Z,980.58
2018-03-08T07:41:00.852Z,980.61
2018-03-08T07:42:01.105Z,980.63
2018-03-08T07:43:01.356Z,980.62
2018-03-08T07:44:01.614Z,980.68
2018-03-08T07:45:01.876Z,980.63
2018-03-08T07:46:02.111Z,980.61
2018-03-08T07:47:02.363Z,980.60
2018-03-08T07:48:02.614Z,980.65
2018-03-08T07:49:02.872Z,980.65
2018-03-08T07:50:03.120Z,980.66
2018-03-08T07:51:03.369Z,980.64
2018-03-08T07:52:03.622Z,980.64
2018-03-08T07:53:03.873Z,980.74
2018-03-08T07:54:04.128Z,980.72
2018-03-08T07:55:04.363Z,980.69
2018-03-08T07:56:04.623Z,980.64
2018-03-08T07:57:04.872Z,980.67
2018-03-08T07:58:05.122Z,980.65
2018-03-08T07:59:05.384Z,980.71
2018-03-08T08:00:05.628Z,980.63
2018-03-08T08:01:05.877Z,980.65
2018-03-08T08:02:06.134Z,980.66
2018-03-08T08:03:06.388Z,980.60
2018-03-08T08:04:06.638Z,980.62
2018-03-08T08:05:06.892Z,980.63
2018-03-08T08:06:07.146Z,980.58
2018-03-08T08:07:07.402Z,980.54
2018-03-08T08:08:07.652Z,980.59
2018-03-08T08:09:07.906Z,980.55
2018-03-08T08:10:08.160Z,980.55
2018-03-08T08:11:08.412Z,980.59
2018-03-08T08:12:08.665Z,980.55
2018-03-08T08:13:08.916Z,980.57
2018-03-08T08:14:09.162Z,980.52
2018-03-08T08:15:09.414Z,980.54
2018-03-08T08:16:09.672Z,980.59
2018-03-08T08:17:09.936Z,980.58
2018-03-08T08:18:10.188Z,980.63
2018-03-08T08:19:10.439Z,980.64
2018-03-08T08:20:10.693Z,980.54
2018-03-08T08:21:10.944Z,980.64
2018-03-08T08:22:11.196Z,980.66
2018-03-08T08:23:11.439Z,980.61
2018-03-08T08:24:11.693Z,980.58
2018-03-08T08:25:11.945Z,980.58
2018-03-08T08:26:12.202Z,980.59
2018-03-08T08:27:12.454Z,980.55
2018-03-08T08:28:12.706Z,980.55
2018-03-08T08:29:12.961Z,980.56
2018-03-08T08:30:13.210Z,980.54
2018-03-08T08:31:13.461Z,980.52
2018-03-08T08:32:13.713Z,980.49
2018-03-08T08:33:13.971Z,980.54
2018-03-08T08:34:14.254Z,980.53
2018-03-08T08:35:14.475Z,980.52
2018-03-08T08:36:14.727Z,980.52
2018-03-08T08:37:14.981Z,980.53
2018-03-08T08:38:15.231Z,980.49
2018-03-08T08:39:15.485Z,980.52
2018-03-08T08:40:15.738Z,980.53
2018-03-08T08:41:15.997Z,980.48
2018-03-08T08:42:16.246Z,980.52
2018-03-08T08:43:16.491Z,980.54
2018-03-08T08:44:16.740Z,980.51
2018-03-08T08:45:16.992Z,980.48
2018-03-08T08:46:17.241Z,980.60
2018-03-08T08:47:17.494Z,980.56
2018-03-08T08:48:17.749Z,980.54
2018-03-08T08:49:17.998Z,980.51
2018-03-08T08:50:18.252Z,980.53
2018-03-08T08:51:18.504Z,980.52
2018-03-08T08:52:18.759Z,980.67
2018-03-08T08:53:19.015Z,980.62
2018-03-08T08:54:19.271Z,980.58
2018-03-08T08:55:19.526Z,980.60
2018-03-08T08:56:19.781Z,980.55
2018-03-08T08:57:20.041Z,980.63
2018-03-08T08:58:20.295Z,980.62
2018-03-08T08:59:20.549Z,980.62
2018-03-08T09:00:20.811Z,980.66
2018-03-08T09:01:21.068Z,980.51
2018-03-08T09:02:21.318Z,980.55
2018-03-08T09:03:21.573Z,980.54
2018-03-08T09:04:21.831Z,980.48
2018-03-08T09:05:22.077Z,980.57
2018-03-08T09:06:22.331Z,980.55
2018-03-08T09:07:22.585Z,980.62
2018-03-08T09:08:22.839Z,980.51
2018-03-08T09:09:23.096Z,980.56
2018-03-08T09:10:23.344Z,980.63
2018-03-08T09:11:23.613Z,980.62
2018-03-08T09:12:23.865Z,980.57
2018-03-08T09:13:24.120Z,980.56
2018-03-08T09:14:24.370Z,980.57
2018-03-08T09:15:24.622Z,980.59
2018-03-08T09:16:24.875Z,980.60
2018-03-08T09:17:25.128Z,980.56
2018-03-08T09:18:25.383Z,980.55
2018-03-08T09:19:25.704Z,980.55
2018-03-08T09:20:25.889Z,980.52
2018-03-08T09:21:26.140Z,980.49
2018-03-08T09:22:26.396Z,980.50
2018-03-08T09:23:26.643Z,980.51
2018-03-08T09:24:26.896Z,980.41
2018-03-08T09:25:27.144Z,980.47
2018-03-08T09:26:27.409Z,980.46
2018-03-08T09:27:27.667Z,980.35
2018-03-08T09:28:27.908Z,980.33
2018-03-08T09:29:28.163Z,980.40
2018-03-08T09:30:28.418Z,980.37
2018-03-08T09:31:28.671Z,980.43
2018-03-08T09:32:28.922Z,980.51
2018-03-08T09:33:29.174Z,980.44
2018-03-08T09:34:29.432Z,980.45
2018-03-08T09:35:29.685Z,980.44
2018-03-08T09:36:29.942Z,980.41
2018-03-08T09:37:30.196Z,980.50
2018-03-08T09:38:30.450Z,980.49
2018-03-08T09:39:30.703Z,980.50
2018-03-08T09:40:30.960Z,980.52
2018-03-08T09:41:31.217Z,980.49
2018-03-08T09:42:31.469Z,980.44
2018-03-08T09:43:31.726Z,980.45
2018-03-08T09:44:31.977Z,980.42
2018-03-08T09:45:32.234Z,980.42
2018-03-08T09:46:32.487Z,980.41
2018-03-08T09:47:32.738Z,980.42
2018-03-08T09:48:32.992Z,980.36
2018-03-08T09:49:33.247Z,980.36
2018-03-08T09:50:33.496Z,980.43
2018-03-08T09:51:33.759Z,980.44
2018-03-08T09:52:34.016Z,980.34
2018-03-08T09:53:34.272Z,980.41
2018-03-08T09:54:34.526Z,980.33
2018-03-08T09:55:34.781Z,980.38
2018-03-08T09:56:35.032Z,980.32
2018-03-08T09:57:35.288Z,980.40
2018-03-08T09:58:35.545Z,980.39
2018-03-08T09:59:35.800Z,980.40
2018-03-08T10:00:36.053Z,980.37
2018-03-08T10:01:36.307Z,980.38
2018-03-08T10:02:36.567Z,980.26
2018-03-08T10:03:36.818Z,980.27
2018-03-08T10:04:37.081Z,980.21
2018-03-08T10:05:37.337Z,980.17
2018-03-08T10:06:37.591Z,980.19
2018-03-08T10:07:37.848Z,980.28
2018-03-08T10:08:38.104Z,980.26
2018-03-08T10:09:38.355Z,980.22
2018-03-08T10:10:38.606Z,980.22
2018-03-08T10:11:38.864Z,980.27
2018-03-08T10:12:39.123Z,980.29
2018-03-08T10:13:39.378Z,980.22
2018-03-08T10:14:39.630Z,980.28
2018-03-08T10:15:39.883Z,980.23
2018-03-08T10:16:40.133Z,980.28
2018-03-08T10:17:40.428Z,980.22
2018-03-08T10:18:40.655Z,980.28
2018-03-08T10:19:40.908Z,980.27
2018-03-08T10:20:41.163Z,980.26
2018-03-08T10:21:44.796Z,980.25
2018-03-08T10:22:41.681Z,980.25
2018-03-08T10:23:41.931Z,980.23
2018-03-08T10:24:42.187Z,980.15
2018-03-08T10:25:42.436Z,980.21
2018-03-08T10:26:42.683Z,980.20
2018-03-08T10:27:42.938Z,980.21
2018-03-08T10:28:43.197Z,980.28
2018-03-08T10:29:43.462Z,980.17
2018-03-08T10:30:43.714Z,980.22
2018-03-08T10:31:43.981Z,980.21
2018-03-08T10:32:44.222Z,980.24
2018-03-08T10:33:44.479Z,980.21
2018-03-08T10:34:44.739Z,980.24
2018-03-08T10:35:44.993Z,980.11
2018-03-08T10:36:45.247Z,980.11
2018-03-08T10:37:45.495Z,980.03
2018-03-08T10:38:45.758Z,980.10
2018-03-08T10:39:46.061Z,980.08
2018-03-08T10:40:46.277Z,980.05
2018-03-08T10:41:46.524Z,980.24
2018-03-08T10:42:46.763Z,980.20
2018-03-08T10:43:47.032Z,980.25
2018-03-08T10:44:47.278Z,980.26
2018-03-08T10:45:47.537Z,980.22
2018-03-08T10:46:47.787Z,980.16
2018-03-08T10:47:48.041Z,980.06
2018-03-08T10:49:48.554Z,980.09
2018-03-08T10:50:48.806Z,980.06
2018-03-08T10:51:49.065Z,980.07
2018-03-08T10:52:49.323Z,979.97
2018-03-08T10:53:49.580Z,980.07
2018-03-08T10:54:49.823Z,980.05
2018-03-08T10:55:50.074Z,980.02
2018-03-08T10:56:50.322Z,979.98
2018-03-08T10:57:50.587Z,980.12
2018-03-08T10:58:50.849Z,980.01
2018-03-08T10:59:51.083Z,980.00
2018-03-08T11:00:51.333Z,980.01
2018-03-08T11:01:51.603Z,979.97
2018-03-08T11:02:51.856Z,980.04
2018-03-08T11:03:52.116Z,979.94
2018-03-08T11:04:52.363Z,979.95
2018-03-08T11:05:52.630Z,979.94
2018-03-08T11:06:52.886Z,979.89
2018-03-08T11:07:53.155Z,979.93
2018-03-08T11:08:53.389Z,980.03
2018-03-08T11:09:53.633Z,979.92
2018-03-08T11:10:53.879Z,980.01
2018-03-08T11:11:54.126Z,979.90
2018-03-08T11:12:54.375Z,979.84
2018-03-08T11:13:54.651Z,979.90
2018-03-08T11:14:54.903Z,979.82
2018-03-08T11:15:55.167Z,979.86
2018-03-08T11:16:55.407Z,979.83
2018-03-08T11:17:55.652Z,979.84
2018-03-08T11:18:55.897Z,979.86
2018-03-08T11:19:56.151Z,979.85
2018-03-08T11:20:56.403Z,979.79
2018-03-08T11:21:56.661Z,979.80
2018-03-08T11:22:56.918Z,979.86
2018-03-08T11:23:57.172Z,979.74
2018-03-08T11:24:57.426Z,979.86
2018-03-08T11:25:57.700Z,979.78
2018-03-08T11:26:57.929Z,979.83
2018-03-08T11:27:58.183Z,979.85
2018-03-08T11:28:58.445Z,979.86
2018-03-08T11:29:58.696Z,979.83
2018-03-08T11:30:58.943Z,979.82
2018-03-08T11:31:59.207Z,979.79
2018-03-08T11:32:59.448Z,979.86
2018-03-08T11:33:59.704Z,979.83
2018-03-08T11:34:59.951Z,979.85
2018-03-08T11:36:14.716Z,979.83
2018-03-08T11:37:00.507Z,979.85
2018-03-08T11:38:00.768Z,979.85
2018-03-08T11:39:01.005Z,979.80
2018-03-08T11:40:02.680Z,979.91
2018-03-08T11:41:01.834Z,979.85
2018-03-08T11:42:01.792Z,979.76
2018-03-08T11:43:02.041Z,979.77
2018-03-08T11:44:02.267Z,979.78
2018-03-08T11:45:02.521Z,979.84
2018-03-08T11:46:02.778Z,979.79
2018-03-08T11:47:03.035Z,979.76
2018-03-08T11:48:03.281Z,979.78
2018-03-08T11:49:03.532Z,979.68
2018-03-08T11:50:03.787Z,979.68
2018-03-08T11:51:04.026Z,979.80
2018-03-08T11:52:04.299Z,979.70
2018-03-08T11:53:04.540Z,979.71
2018-03-08T11:54:04.794Z,979.62
2018-03-08T11:55:05.058Z,979.58
2018-03-08T11:56:05.309Z,979.68
2018-03-08T11:57:05.572Z,979.64
2018-03-08T11:58:05.840Z,979.65
2018-03-08T11:59:06.133Z,979.64
2018-03-08T12:00:06.359Z,979.57
2018-03-08T12:01:06.616Z,979.56
2018-03-08T12:02:06.879Z,979.52
2018-03-08T12:03:07.129Z,979.56
2018-03-08T12:04:07.364Z,979.63
2018-03-08T12:05:07.619Z,979.52
2018-03-08T12:06:07.862Z,979.59
2018-03-08T12:07:08.115Z,979.60
2018-03-08T12:08:08.365Z,979.55
2018-03-08T12:09:08.628Z,979.58
2018-03-08T12:10:08.858Z,979.66
2018-03-08T12:11:09.157Z,979.55
2018-03-08T12:12:09.434Z,979.54
2018-03-08T12:13:09.663Z,979.69
2018-03-08T12:14:09.910Z,979.68
2018-03-08T12:15:10.152Z,979.76
2018-03-08T12:16:10.411Z,979.62
2018-03-08T12:17:10.681Z,979.72
2018-03-08T12:18:10.891Z,979.65
2018-03-08T12:19:11.203Z,979.64
2018-03-08T12:20:11.462Z,979.57
2018-03-08T12:21:11.706Z,979.61
2018-03-08T12:22:11.964Z,979.64
2018-03-08T12:23:12.185Z,979.62
2018-03-08T12:24:12.425Z,979.63
2018-03-08T12:25:12.681Z,979.71
2018-03-08T12:26:12.939Z,979.58
2018-03-08T12:27:13.188Z,979.61
2018-03-08T12:28:13.428Z,979.62
2018-03-08T12:29:13.677Z,979.58
2018-03-08T12:30:13.928Z,979.54
2018-03-08T12:31:14.171Z,979.64
2018-03-08T12:32:14.419Z,979.65